sensor_id;sensor_type;location;lat;lon;timestamp;temperature;humidity
68051;DHT22;54839;51.364;7.246;2022-09-27T00:00:36;9.70;99.90
68051;DHT22;54839;51.364;7.246;2022-09-27T00:03:01;9.60;99.90
68051;DHT22;54839;51.364;7.246;2022-09-27T00:05:28;9.60;99.90
68051;DHT22;54839;51.364;7.246;2022-09-27T00:07:53;9.70;99.90
68051;DHT22;54839;51.364;7.246;2022-09-27T00:10:19;9.60;99.90
68051;DHT22;54839;51.364;7.246;2022-09-27T00:12:45;9.60;99.90
68051;DHT22;54839;51.364;7.246;2022-09-27T00:15:10;9.60;99.90
68051;DHT22;54839;51.364;7.246;2022-09-27T00:17:37;9.60;99.90
68051;DHT22;54839;51.364;7.246;2022-09-27T00:20:04;9.60;99.90
68051;DHT22;54839;51.364;7.246;2022-09-27T00:22:31;9.60;99.90
68051;DHT22;54839;51.364;7.246;2022-09-27T00:24:57;9.60;99.90
68051;DHT22;54839;51.364;7.246;2022-09-27T00:27:24;9.50;99.90
68051;DHT22;54839;51.364;7.246;2022-09-27T00:29:50;9.60;99.90
68051;DHT22;54839;51.364;7.246;2022-09-27T00:32:15;9.50;99.90
68051;DHT22;54839;51.364;7.246;2022-09-27T00:34:41;9.50;99.90
68051;DHT22;54839;51.364;7.246;2022-09-27T00:37:08;9.50;99.90
68051;DHT22;54839;51.364;7.246;2022-09-27T00:39:34;9.50;99.90
68051;DHT22;54839;51.364;7.246;2022-09-27T00:41:59;9.50;99.90
68051;DHT22;54839;51.364;7.246;2022-09-27T00:47:00;9.40;99.90
68051;DHT22;54839;51.364;7.246;2022-09-27T00:55:15;9.40;99.90
68051;DHT22;54839;51.364;7.246;2022-09-27T00:57:43;9.40;99.90
68051;DHT22;54839;51.364;7.246;2022-09-27T01:00:12;9.40;99.90
68051;DHT22;54839;51.364;7.246;2022-09-27T01:02:41;9.30;99.90
68051;DHT22;54839;51.364;7.246;2022-09-27T01:05:09;9.40;99.90
68051;DHT22;54839;51.364;7.246;2022-09-27T01:07:35;9.40;99.90
68051;DHT22;54839;51.364;7.246;2022-09-27T01:10:01;9.30;99.90
68051;DHT22;54839;51.364;7.246;2022-09-27T01:12:30;9.30;99.90
68051;DHT22;54839;51.364;7.246;2022-09-27T01:15:25;9.40;99.90
68051;DHT22;54839;51.364;7.246;2022-09-27T01:37:14;9.30;99.90
68051;DHT22;54839;51.364;7.246;2022-09-27T01:39:59;9.30;99.90
68051;DHT22;54839;51.364;7.246;2022-09-27T01:42:57;9.30;99.90
68051;DHT22;54839;51.364;7.246;2022-09-27T01:45:25;9.20;99.90
68051;DHT22;54839;51.364;7.246;2022-09-27T01:48:01;9.30;99.90
68051;DHT22;54839;51.364;7.246;2022-09-27T01:50:35;9.20;99.90
68051;DHT22;54839;51.364;7.246;2022-09-27T01:53:06;9.20;99.90
68051;DHT22;54839;51.364;7.246;2022-09-27T01:55:36;9.30;99.90
68051;DHT22;54839;51.364;7.246;2022-09-27T01:58:30;9.30;99.90
68051;DHT22;54839;51.364;7.246;2022-09-27T02:00:57;9.30;99.90
68051;DHT22;54839;51.364;7.246;2022-09-27T02:03:27;9.30;99.90
68051;DHT22;54839;51.364;7.246;2022-09-27T02:05:59;9.30;99.90
68051;DHT22;54839;51.364;7.246;2022-09-27T02:08:56;9.30;99.90
68051;DHT22;54839;51.364;7.246;2022-09-27T02:11:23;9.30;99.90
68051;DHT22;54839;51.364;7.246;2022-09-27T02:14:10;9.30;99.90
68051;DHT22;54839;51.364;7.246;2022-09-27T02:16:50;9.20;99.90
68051;DHT22;54839;51.364;7.246;2022-09-27T02:19:32;9.20;99.90
68051;DHT22;54839;51.364;7.246;2022-09-27T02:27:32;9.20;99.90
68051;DHT22;54839;51.364;7.246;2022-09-27T02:30:25;9.10;99.90
68051;DHT22;54839;51.364;7.246;2022-09-27T02:32:51;9.20;99.90
68051;DHT22;54839;51.364;7.246;2022-09-27T02:35:30;9.20;99.90
68051;DHT22;54839;51.364;7.246;2022-09-27T02:37:57;9.30;99.90
68051;DHT22;54839;51.364;7.246;2022-09-27T02:40:23;9.20;99.90
68051;DHT22;54839;51.364;7.246;2022-09-27T02:42:50;9.20;99.90
68051;DHT22;54839;51.364;7.246;2022-09-27T02:45:17;9.20;99.90
68051;DHT22;54839;51.364;7.246;2022-09-27T02:50:41;9.20;99.90
68051;DHT22;54839;51.364;7.246;2022-09-27T02:53:24;9.20;99.90
68051;DHT22;54839;51.364;7.246;2022-09-27T02:56:12;9.20;99.90
68051;DHT22;54839;51.364;7.246;2022-09-27T02:58:55;9.30;99.90
68051;DHT22;54839;51.364;7.246;2022-09-27T03:04:21;9.30;99.90
68051;DHT22;54839;51.364;7.246;2022-09-27T03:06:48;9.30;99.90
68051;DHT22;54839;51.364;7.246;2022-09-27T03:09:23;9.30;99.90
68051;DHT22;54839;51.364;7.246;2022-09-27T03:11:49;9.30;99.90
68051;DHT22;54839;51.364;7.246;2022-09-27T03:14:15;9.30;99.90
68051;DHT22;54839;51.364;7.246;2022-09-27T03:16:41;9.40;99.90
68051;DHT22;54839;51.364;7.246;2022-09-27T03:19:08;9.50;99.90
68051;DHT22;54839;51.364;7.246;2022-09-27T03:21:34;9.40;99.90
68051;DHT22;54839;51.364;7.246;2022-09-27T03:23:59;9.50;99.90
68051;DHT22;54839;51.364;7.246;2022-09-27T03:26:25;9.40;99.90
68051;DHT22;54839;51.364;7.246;2022-09-27T03:28:51;9.30;99.90
68051;DHT22;54839;51.364;7.246;2022-09-27T03:31:17;9.30;99.90
68051;DHT22;54839;51.364;7.246;2022-09-27T03:33:42;9.30;99.90
68051;DHT22;54839;51.364;7.246;2022-09-27T03:36:08;9.30;99.90
68051;DHT22;54839;51.364;7.246;2022-09-27T03:38:33;9.30;99.90
68051;DHT22;54839;51.364;7.246;2022-09-27T03:40:59;9.20;99.90
68051;DHT22;54839;51.364;7.246;2022-09-27T03:43:24;9.10;99.90
68051;DHT22;54839;51.364;7.246;2022-09-27T03:45:50;9.10;99.90
68051;DHT22;54839;51.364;7.246;2022-09-27T03:48:16;8.90;99.90
68051;DHT22;54839;51.364;7.246;2022-09-27T03:50:41;9.00;99.90
68051;DHT22;54839;51.364;7.246;2022-09-27T03:53:07;9.00;99.90
68051;DHT22;54839;51.364;7.246;2022-09-27T03:55:33;9.00;99.90
68051;DHT22;54839;51.364;7.246;2022-09-27T03:58:00;8.90;99.90
68051;DHT22;54839;51.364;7.246;2022-09-27T04:00:25;8.90;99.90
68051;DHT22;54839;51.364;7.246;2022-09-27T04:02:51;9.10;99.90
68051;DHT22;54839;51.364;7.246;2022-09-27T04:05:17;9.20;99.90
68051;DHT22;54839;51.364;7.246;2022-09-27T04:07:49;9.20;99.90
68051;DHT22;54839;51.364;7.246;2022-09-27T04:10:15;9.20;99.90
68051;DHT22;54839;51.364;7.246;2022-09-27T04:12:40;9.10;99.90
68051;DHT22;54839;51.364;7.246;2022-09-27T04:15:06;9.10;99.90
68051;DHT22;54839;51.364;7.246;2022-09-27T04:17:33;9.20;99.90
68051;DHT22;54839;51.364;7.246;2022-09-27T04:19:59;9.10;99.90
68051;DHT22;54839;51.364;7.246;2022-09-27T04:22:26;9.20;99.90
68051;DHT22;54839;51.364;7.246;2022-09-27T04:24:52;9.10;99.90
68051;DHT22;54839;51.364;7.246;2022-09-27T04:27:18;9.10;99.90
68051;DHT22;54839;51.364;7.246;2022-09-27T04:29:43;9.20;99.90
68051;DHT22;54839;51.364;7.246;2022-09-27T04:32:11;9.10;99.90
68051;DHT22;54839;51.364;7.246;2022-09-27T04:34:36;9.20;99.90
68051;DHT22;54839;51.364;7.246;2022-09-27T04:37:21;9.10;99.90
68051;DHT22;54839;51.364;7.246;2022-09-27T04:39:46;9.20;99.90
68051;DHT22;54839;51.364;7.246;2022-09-27T04:42:13;9.20;99.90
68051;DHT22;54839;51.364;7.246;2022-09-27T04:44:39;9.10;99.90
68051;DHT22;54839;51.364;7.246;2022-09-27T04:47:04;9.20;99.90
68051;DHT22;54839;51.364;7.246;2022-09-27T04:49:30;9.10;99.90
68051;DHT22;54839;51.364;7.246;2022-09-27T04:51:55;9.10;99.90
68051;DHT22;54839;51.364;7.246;2022-09-27T04:54:21;9.10;99.90
68051;DHT22;54839;51.364;7.246;2022-09-27T04:56:46;9.20;99.90
68051;DHT22;54839;51.364;7.246;2022-09-27T04:59:13;9.10;99.90
68051;DHT22;54839;51.364;7.246;2022-09-27T05:01:39;9.10;99.90
68051;DHT22;54839;51.364;7.246;2022-09-27T05:04:05;9.10;99.90
68051;DHT22;54839;51.364;7.246;2022-09-27T05:06:30;9.20;99.90
68051;DHT22;54839;51.364;7.246;2022-09-27T05:08:56;9.10;99.90
68051;DHT22;54839;51.364;7.246;2022-09-27T05:11:23;9.10;99.90
68051;DHT22;54839;51.364;7.246;2022-09-27T05:13:48;9.00;99.90
68051;DHT22;54839;51.364;7.246;2022-09-27T05:16:14;9.00;99.90
68051;DHT22;54839;51.364;7.246;2022-09-27T05:18:40;9.10;99.90
68051;DHT22;54839;51.364;7.246;2022-09-27T05:21:06;9.00;99.90
68051;DHT22;54839;51.364;7.246;2022-09-27T05:23:32;9.00;99.90
68051;DHT22;54839;51.364;7.246;2022-09-27T05:25:57;9.00;99.90
68051;DHT22;54839;51.364;7.246;2022-09-27T05:28:23;9.00;99.90
68051;DHT22;54839;51.364;7.246;2022-09-27T05:30:48;9.00;99.90
68051;DHT22;54839;51.364;7.246;2022-09-27T05:33:14;8.90;99.90
68051;DHT22;54839;51.364;7.246;2022-09-27T05:35:40;8.90;99.90
68051;DHT22;54839;51.364;7.246;2022-09-27T05:38:07;9.00;99.90
68051;DHT22;54839;51.364;7.246;2022-09-27T05:40:33;9.00;99.90
68051;DHT22;54839;51.364;7.246;2022-09-27T05:42:58;8.90;99.90
68051;DHT22;54839;51.364;7.246;2022-09-27T05:45:24;9.00;99.90
68051;DHT22;54839;51.364;7.246;2022-09-27T05:47:57;9.00;99.90
68051;DHT22;54839;51.364;7.246;2022-09-27T05:50:24;8.90;99.90
68051;DHT22;54839;51.364;7.246;2022-09-27T05:52:50;8.90;99.90
68051;DHT22;54839;51.364;7.246;2022-09-27T05:55:16;8.90;99.90
68051;DHT22;54839;51.364;7.246;2022-09-27T05:57:41;8.80;99.90
68051;DHT22;54839;51.364;7.246;2022-09-27T06:00:08;8.90;99.90
68051;DHT22;54839;51.364;7.246;2022-09-27T06:02:34;8.70;99.90
68051;DHT22;54839;51.364;7.246;2022-09-27T06:05:00;8.80;99.90
68051;DHT22;54839;51.364;7.246;2022-09-27T06:07:25;8.90;99.90
68051;DHT22;54839;51.364;7.246;2022-09-27T06:09:53;8.90;99.90
68051;DHT22;54839;51.364;7.246;2022-09-27T06:12:18;8.90;99.90
68051;DHT22;54839;51.364;7.246;2022-09-27T06:14:44;8.80;99.90
68051;DHT22;54839;51.364;7.246;2022-09-27T06:17:10;8.80;99.90
68051;DHT22;54839;51.364;7.246;2022-09-27T06:19:35;8.90;99.90
68051;DHT22;54839;51.364;7.246;2022-09-27T06:22:01;8.80;99.90
68051;DHT22;54839;51.364;7.246;2022-09-27T06:24:27;8.90;99.90
68051;DHT22;54839;51.364;7.246;2022-09-27T06:26:53;8.90;99.90
68051;DHT22;54839;51.364;7.246;2022-09-27T06:29:18;8.90;99.90
68051;DHT22;54839;51.364;7.246;2022-09-27T06:31:44;8.90;99.90
68051;DHT22;54839;51.364;7.246;2022-09-27T06:34:09;8.90;99.90
68051;DHT22;54839;51.364;7.246;2022-09-27T06:36:35;8.90;99.90
68051;DHT22;54839;51.364;7.246;2022-09-27T06:39:00;9.00;99.90
68051;DHT22;54839;51.364;7.246;2022-09-27T06:41:26;9.10;99.90
68051;DHT22;54839;51.364;7.246;2022-09-27T06:43:51;9.10;99.90
68051;DHT22;54839;51.364;7.246;2022-09-27T06:46:17;9.20;99.90
68051;DHT22;54839;51.364;7.246;2022-09-27T06:48:42;9.10;99.90
68051;DHT22;54839;51.364;7.246;2022-09-27T06:51:08;9.20;99.90
68051;DHT22;54839;51.364;7.246;2022-09-27T06:53:33;9.10;99.90
68051;DHT22;54839;51.364;7.246;2022-09-27T06:56:00;9.10;99.90
68051;DHT22;54839;51.364;7.246;2022-09-27T06:58:26;9.20;99.90
68051;DHT22;54839;51.364;7.246;2022-09-27T07:01:11;9.10;99.90
68051;DHT22;54839;51.364;7.246;2022-09-27T07:03:37;9.20;99.90
68051;DHT22;54839;51.364;7.246;2022-09-27T07:06:08;9.10;99.90
68051;DHT22;54839;51.364;7.246;2022-09-27T07:08:35;9.10;99.90
68051;DHT22;54839;51.364;7.246;2022-09-27T07:11:05;9.10;99.90
68051;DHT22;54839;51.364;7.246;2022-09-27T07:13:31;9.10;99.90
68051;DHT22;54839;51.364;7.246;2022-09-27T07:15:59;9.00;99.90
68051;DHT22;54839;51.364;7.246;2022-09-27T07:18:25;9.00;99.90
68051;DHT22;54839;51.364;7.246;2022-09-27T07:20:51;9.10;99.90
68051;DHT22;54839;51.364;7.246;2022-09-27T07:23:17;9.00;99.90
68051;DHT22;54839;51.364;7.246;2022-09-27T07:25:43;9.10;99.90
68051;DHT22;54839;51.364;7.246;2022-09-27T07:28:15;9.20;99.90
68051;DHT22;54839;51.364;7.246;2022-09-27T07:30:41;9.20;99.90
68051;DHT22;54839;51.364;7.246;2022-09-27T07:33:08;9.40;99.90
68051;DHT22;54839;51.364;7.246;2022-09-27T07:35:34;9.30;99.90
68051;DHT22;54839;51.364;7.246;2022-09-27T07:38:05;9.30;99.90
68051;DHT22;54839;51.364;7.246;2022-09-27T07:40:35;9.40;99.90
68051;DHT22;54839;51.364;7.246;2022-09-27T07:43:01;9.40;99.90
68051;DHT22;54839;51.364;7.246;2022-09-27T07:45:27;9.60;99.90
68051;DHT22;54839;51.364;7.246;2022-09-27T07:47:52;9.50;99.90
68051;DHT22;54839;51.364;7.246;2022-09-27T07:50:19;9.50;99.90
68051;DHT22;54839;51.364;7.246;2022-09-27T07:52:46;9.60;99.90
68051;DHT22;54839;51.364;7.246;2022-09-27T07:55:13;9.50;99.90
68051;DHT22;54839;51.364;7.246;2022-09-27T07:57:39;9.40;99.90
68051;DHT22;54839;51.364;7.246;2022-09-27T08:00:08;9.60;99.90
68051;DHT22;54839;51.364;7.246;2022-09-27T08:02:34;9.70;99.90
68051;DHT22;54839;51.364;7.246;2022-09-27T08:05:00;9.70;99.90
68051;DHT22;54839;51.364;7.246;2022-09-27T08:07:26;9.70;99.90
68051;DHT22;54839;51.364;7.246;2022-09-27T08:09:52;9.70;99.90
68051;DHT22;54839;51.364;7.246;2022-09-27T08:12:18;9.80;99.90
68051;DHT22;54839;51.364;7.246;2022-09-27T08:14:46;9.60;99.90
68051;DHT22;54839;51.364;7.246;2022-09-27T08:17:12;9.70;99.90
68051;DHT22;54839;51.364;7.246;2022-09-27T08:19:38;9.70;99.90
68051;DHT22;54839;51.364;7.246;2022-09-27T08:22:04;9.80;99.90
68051;DHT22;54839;51.364;7.246;2022-09-27T08:24:29;9.90;99.90
68051;DHT22;54839;51.364;7.246;2022-09-27T08:26:55;9.70;99.90
68051;DHT22;54839;51.364;7.246;2022-09-27T08:29:20;9.80;99.90
68051;DHT22;54839;51.364;7.246;2022-09-27T08:31:46;9.70;99.90
68051;DHT22;54839;51.364;7.246;2022-09-27T08:34:12;9.80;99.90
68051;DHT22;54839;51.364;7.246;2022-09-27T08:36:37;9.80;99.90
68051;DHT22;54839;51.364;7.246;2022-09-27T08:39:04;9.70;99.90
68051;DHT22;54839;51.364;7.246;2022-09-27T08:47:07;9.90;99.90
68051;DHT22;54839;51.364;7.246;2022-09-27T08:49:57;9.90;99.90
68051;DHT22;54839;51.364;7.246;2022-09-27T08:52:34;10.40;99.90
68051;DHT22;54839;51.364;7.246;2022-09-27T08:55:05;10.70;99.90
68051;DHT22;54839;51.364;7.246;2022-09-27T08:57:34;10.80;99.90
68051;DHT22;54839;51.364;7.246;2022-09-27T09:00:05;10.60;99.90
68051;DHT22;54839;51.364;7.246;2022-09-27T09:02:32;10.70;99.90
68051;DHT22;54839;51.364;7.246;2022-09-27T09:05:07;10.70;99.90
68051;DHT22;54839;51.364;7.246;2022-09-27T09:07:56;10.50;99.90
68051;DHT22;54839;51.364;7.246;2022-09-27T09:19:19;10.50;99.90
68051;DHT22;54839;51.364;7.246;2022-09-27T09:21:58;10.50;99.90
68051;DHT22;54839;51.364;7.246;2022-09-27T09:27:04;10.70;99.90
68051;DHT22;54839;51.364;7.246;2022-09-27T09:32:24;10.50;99.90
68051;DHT22;54839;51.364;7.246;2022-09-27T09:34:59;10.50;99.90
68051;DHT22;54839;51.364;7.246;2022-09-27T09:40:04;10.70;99.90
68051;DHT22;54839;51.364;7.246;2022-09-27T09:42:37;10.60;99.90
68051;DHT22;54839;51.364;7.246;2022-09-27T09:45:14;10.70;99.90
68051;DHT22;54839;51.364;7.246;2022-09-27T09:47:53;10.70;99.90
68051;DHT22;54839;51.364;7.246;2022-09-27T09:50:28;10.60;99.90
68051;DHT22;54839;51.364;7.246;2022-09-27T09:53:02;10.60;99.90
68051;DHT22;54839;51.364;7.246;2022-09-27T09:55:34;10.80;99.90
68051;DHT22;54839;51.364;7.246;2022-09-27T09:58:21;10.90;99.90
68051;DHT22;54839;51.364;7.246;2022-09-27T10:00:50;11.00;99.90
68051;DHT22;54839;51.364;7.246;2022-09-27T10:03:18;11.30;99.90
68051;DHT22;54839;51.364;7.246;2022-09-27T10:05:44;11.60;99.90
68051;DHT22;54839;51.364;7.246;2022-09-27T10:08:24;11.00;99.90
68051;DHT22;54839;51.364;7.246;2022-09-27T10:10:50;10.70;99.90
68051;DHT22;54839;51.364;7.246;2022-09-27T10:13:17;10.80;99.90
68051;DHT22;54839;51.364;7.246;2022-09-27T10:15:54;10.80;99.90
68051;DHT22;54839;51.364;7.246;2022-09-27T10:18:22;10.80;99.90
68051;DHT22;54839;51.364;7.246;2022-09-27T10:20:58;10.80;99.90
68051;DHT22;54839;51.364;7.246;2022-09-27T10:23:25;10.80;99.90
68051;DHT22;54839;51.364;7.246;2022-09-27T10:25:53;10.90;99.90
68051;DHT22;54839;51.364;7.246;2022-09-27T10:28:37;11.10;99.90
68051;DHT22;54839;51.364;7.246;2022-09-27T10:31:08;11.10;99.90
68051;DHT22;54839;51.364;7.246;2022-09-27T10:33:38;11.00;99.90
68051;DHT22;54839;51.364;7.246;2022-09-27T10:36:22;11.30;99.90
68051;DHT22;54839;51.364;7.246;2022-09-27T10:38:57;11.50;99.90
68051;DHT22;54839;51.364;7.246;2022-09-27T10:43:50;11.80;99.90
68051;DHT22;54839;51.364;7.246;2022-09-27T10:46:32;11.70;99.90
68051;DHT22;54839;51.364;7.246;2022-09-27T10:49:24;11.80;99.90
68051;DHT22;54839;51.364;7.246;2022-09-27T10:51:56;12.00;99.90
68051;DHT22;54839;51.364;7.246;2022-09-27T10:54:28;11.80;99.90
68051;DHT22;54839;51.364;7.246;2022-09-27T10:56:59;12.10;99.90
68051;DHT22;54839;51.364;7.246;2022-09-27T10:59:26;12.20;99.90
68051;DHT22;54839;51.364;7.246;2022-09-27T11:01:55;12.50;99.90
68051;DHT22;54839;51.364;7.246;2022-09-27T11:04:28;12.60;99.90
68051;DHT22;54839;51.364;7.246;2022-09-27T11:07:07;12.20;99.90
68051;DHT22;54839;51.364;7.246;2022-09-27T11:09:48;12.30;99.90
68051;DHT22;54839;51.364;7.246;2022-09-27T11:12:15;11.90;99.90
68051;DHT22;54839;51.364;7.246;2022-09-27T11:15:03;12.50;99.90
68051;DHT22;54839;51.364;7.246;2022-09-27T11:17:59;12.20;99.90
68051;DHT22;54839;51.364;7.246;2022-09-27T11:20:46;12.70;99.90
68051;DHT22;54839;51.364;7.246;2022-09-27T11:23:48;12.70;99.90
68051;DHT22;54839;51.364;7.246;2022-09-27T11:26:30;12.20;99.90
68051;DHT22;54839;51.364;7.246;2022-09-27T11:29:24;12.00;99.90
68051;DHT22;54839;51.364;7.246;2022-09-27T11:32:10;11.90;99.90
68051;DHT22;54839;51.364;7.246;2022-09-27T11:46:28;12.00;99.90
68051;DHT22;54839;51.364;7.246;2022-09-27T11:54:46;12.40;99.90
68051;DHT22;54839;51.364;7.246;2022-09-27T12:00:19;12.90;99.90
68051;DHT22;54839;51.364;7.246;2022-09-27T12:05:48;12.90;99.90
68051;DHT22;54839;51.364;7.246;2022-09-27T12:08:46;13.00;99.90
68051;DHT22;54839;51.364;7.246;2022-09-27T12:11:24;12.90;99.90
68051;DHT22;54839;51.364;7.246;2022-09-27T12:16:24;12.70;99.90
68051;DHT22;54839;51.364;7.246;2022-09-27T12:18:51;12.70;99.90
68051;DHT22;54839;51.364;7.246;2022-09-27T12:21:18;12.40;99.90
68051;DHT22;54839;51.364;7.246;2022-09-27T12:23:49;12.30;99.90
68051;DHT22;54839;51.364;7.246;2022-09-27T12:26:39;12.20;99.90
68051;DHT22;54839;51.364;7.246;2022-09-27T12:29:26;12.10;99.90
68051;DHT22;54839;51.364;7.246;2022-09-27T12:37:31;12.20;99.90
68051;DHT22;54839;51.364;7.246;2022-09-27T12:40:57;11.90;99.90
68051;DHT22;54839;51.364;7.246;2022-09-27T12:43:10;11.60;99.90
68051;DHT22;54839;51.364;7.246;2022-09-27T12:51:15;12.50;99.90
68051;DHT22;54839;51.364;7.246;2022-09-27T12:59:52;12.50;99.90
68051;DHT22;54839;51.364;7.246;2022-09-27T13:13:26;9.90;99.90
68051;DHT22;54839;51.364;7.246;2022-09-27T13:15:57;9.70;99.90
68051;DHT22;54839;51.364;7.246;2022-09-27T13:21:00;9.60;99.90
68051;DHT22;54839;51.364;7.246;2022-09-27T13:26:01;9.50;99.90
68051;DHT22;54839;51.364;7.246;2022-09-27T13:30:58;9.30;99.90
68051;DHT22;54839;51.364;7.246;2022-09-27T13:33:46;9.10;99.90
68051;DHT22;54839;51.364;7.246;2022-09-27T13:44:15;9.70;99.90
68051;DHT22;54839;51.364;7.246;2022-09-27T13:46:47;10.00;99.90
68051;DHT22;54839;51.364;7.246;2022-09-27T13:49:35;9.90;99.90
68051;DHT22;54839;51.364;7.246;2022-09-27T13:52:18;10.00;99.90
68051;DHT22;54839;51.364;7.246;2022-09-27T13:54:57;10.00;99.90
68051;DHT22;54839;51.364;7.246;2022-09-27T14:00:19;10.10;99.90
68051;DHT22;54839;51.364;7.246;2022-09-27T14:05:20;10.20;99.90
68051;DHT22;54839;51.364;7.246;2022-09-27T14:07:49;10.20;99.90
68051;DHT22;54839;51.364;7.246;2022-09-27T14:10:18;10.30;99.90
68051;DHT22;54839;51.364;7.246;2022-09-27T14:12:47;10.30;99.90
68051;DHT22;54839;51.364;7.246;2022-09-27T14:15:23;10.40;99.90
68051;DHT22;54839;51.364;7.246;2022-09-27T14:17:50;10.50;99.90
68051;DHT22;54839;51.364;7.246;2022-09-27T14:20:55;10.30;99.90
68051;DHT22;54839;51.364;7.246;2022-09-27T14:23:31;10.30;99.90
68051;DHT22;54839;51.364;7.246;2022-09-27T14:25:56;10.50;99.90
68051;DHT22;54839;51.364;7.246;2022-09-27T14:28:28;10.70;99.90
68051;DHT22;54839;51.364;7.246;2022-09-27T14:31:15;10.90;99.90
68051;DHT22;54839;51.364;7.246;2022-09-27T14:33:43;11.00;99.90
68051;DHT22;54839;51.364;7.246;2022-09-27T14:36:31;11.00;99.90
68051;DHT22;54839;51.364;7.246;2022-09-27T14:39:27;11.00;99.90
68051;DHT22;54839;51.364;7.246;2022-09-27T14:41:55;11.20;99.90
68051;DHT22;54839;51.364;7.246;2022-09-27T14:44:21;11.40;99.90
68051;DHT22;54839;51.364;7.246;2022-09-27T14:46:47;11.70;99.90
68051;DHT22;54839;51.364;7.246;2022-09-27T14:49:23;12.10;99.90
68051;DHT22;54839;51.364;7.246;2022-09-27T14:51:55;12.20;99.90
68051;DHT22;54839;51.364;7.246;2022-09-27T14:54:26;12.30;99.90
68051;DHT22;54839;51.364;7.246;2022-09-27T14:56:53;12.20;99.90
68051;DHT22;54839;51.364;7.246;2022-09-27T15:01:51;11.40;99.90
68051;DHT22;54839;51.364;7.246;2022-09-27T15:04:18;11.20;99.90
68051;DHT22;54839;51.364;7.246;2022-09-27T15:06:45;11.00;99.90
68051;DHT22;54839;51.364;7.246;2022-09-27T15:09:12;11.10;99.90
68051;DHT22;54839;51.364;7.246;2022-09-27T15:11:39;11.10;99.90
68051;DHT22;54839;51.364;7.246;2022-09-27T15:14:06;10.80;99.90
68051;DHT22;54839;51.364;7.246;2022-09-27T15:16:36;10.90;99.90
68051;DHT22;54839;51.364;7.246;2022-09-27T15:19:10;10.70;99.90
68051;DHT22;54839;51.364;7.246;2022-09-27T15:21:38;10.70;99.90
68051;DHT22;54839;51.364;7.246;2022-09-27T15:24:04;10.70;99.90
68051;DHT22;54839;51.364;7.246;2022-09-27T15:26:39;10.70;99.90
68051;DHT22;54839;51.364;7.246;2022-09-27T15:29:19;10.80;99.90
68051;DHT22;54839;51.364;7.246;2022-09-27T15:32:06;11.00;99.90
68051;DHT22;54839;51.364;7.246;2022-09-27T15:34:33;11.00;99.90
68051;DHT22;54839;51.364;7.246;2022-09-27T15:37:00;11.20;99.90
68051;DHT22;54839;51.364;7.246;2022-09-27T15:39:38;11.30;99.90
68051;DHT22;54839;51.364;7.246;2022-09-27T15:42:09;11.50;99.90
68051;DHT22;54839;51.364;7.246;2022-09-27T15:44:51;11.50;99.90
68051;DHT22;54839;51.364;7.246;2022-09-27T15:52:52;11.50;99.90
68051;DHT22;54839;51.364;7.246;2022-09-27T15:55:23;11.40;99.90
68051;DHT22;54839;51.364;7.246;2022-09-27T15:58:10;11.40;99.90
68051;DHT22;54839;51.364;7.246;2022-09-27T16:00:53;11.20;99.90
68051;DHT22;54839;51.364;7.246;2022-09-27T16:03:19;11.20;99.90
68051;DHT22;54839;51.364;7.246;2022-09-27T16:05:45;11.40;99.90
68051;DHT22;54839;51.364;7.246;2022-09-27T16:08:10;11.50;99.90
68051;DHT22;54839;51.364;7.246;2022-09-27T16:10:38;11.30;99.90
68051;DHT22;54839;51.364;7.246;2022-09-27T16:13:05;11.50;99.90
68051;DHT22;54839;51.364;7.246;2022-09-27T16:15:30;11.10;99.90
68051;DHT22;54839;51.364;7.246;2022-09-27T16:17:56;11.00;99.90
68051;DHT22;54839;51.364;7.246;2022-09-27T16:20:25;10.80;99.90
68051;DHT22;54839;51.364;7.246;2022-09-27T16:22:52;10.70;99.90
68051;DHT22;54839;51.364;7.246;2022-09-27T16:25:18;10.60;99.90
68051;DHT22;54839;51.364;7.246;2022-09-27T16:27:44;10.60;99.90
68051;DHT22;54839;51.364;7.246;2022-09-27T16:30:10;10.40;99.90
68051;DHT22;54839;51.364;7.246;2022-09-27T16:32:44;10.40;99.90
68051;DHT22;54839;51.364;7.246;2022-09-27T16:35:11;10.30;99.90
68051;DHT22;54839;51.364;7.246;2022-09-27T16:37:37;10.00;99.90
68051;DHT22;54839;51.364;7.246;2022-09-27T16:40:04;9.90;99.90
68051;DHT22;54839;51.364;7.246;2022-09-27T16:42:30;9.80;99.90
68051;DHT22;54839;51.364;7.246;2022-09-27T16:44:56;9.80;99.90
68051;DHT22;54839;51.364;7.246;2022-09-27T16:47:21;9.80;99.90
68051;DHT22;54839;51.364;7.246;2022-09-27T16:49:47;9.80;99.90
68051;DHT22;54839;51.364;7.246;2022-09-27T16:52:31;9.70;99.90
68051;DHT22;54839;51.364;7.246;2022-09-27T16:54:57;9.60;99.90
68051;DHT22;54839;51.364;7.246;2022-09-27T16:57:23;9.70;99.90
68051;DHT22;54839;51.364;7.246;2022-09-27T16:59:49;9.60;99.90
68051;DHT22;54839;51.364;7.246;2022-09-27T17:02:15;9.60;99.90
68051;DHT22;54839;51.364;7.246;2022-09-27T17:04:42;9.60;99.90
68051;DHT22;54839;51.364;7.246;2022-09-27T17:07:07;9.60;99.90
68051;DHT22;54839;51.364;7.246;2022-09-27T17:09:33;9.50;99.90
68051;DHT22;54839;51.364;7.246;2022-09-27T17:11:59;9.40;99.90
68051;DHT22;54839;51.364;7.246;2022-09-27T17:14:24;9.40;99.90
68051;DHT22;54839;51.364;7.246;2022-09-27T17:16:51;9.30;99.90
68051;DHT22;54839;51.364;7.246;2022-09-27T17:19:17;9.50;99.90
68051;DHT22;54839;51.364;7.246;2022-09-27T17:21:44;9.40;99.90
68051;DHT22;54839;51.364;7.246;2022-09-27T17:24:10;9.30;99.90
68051;DHT22;54839;51.364;7.246;2022-09-27T17:26:36;9.20;99.90
68051;DHT22;54839;51.364;7.246;2022-09-27T17:29:02;9.10;99.90
68051;DHT22;54839;51.364;7.246;2022-09-27T17:31:29;9.10;99.90
68051;DHT22;54839;51.364;7.246;2022-09-27T17:33:56;9.00;99.90
68051;DHT22;54839;51.364;7.246;2022-09-27T17:36:24;9.10;99.90
68051;DHT22;54839;51.364;7.246;2022-09-27T17:38:51;9.10;99.90
68051;DHT22;54839;51.364;7.246;2022-09-27T17:41:20;9.00;99.90
68051;DHT22;54839;51.364;7.246;2022-09-27T17:43:50;9.00;99.90
68051;DHT22;54839;51.364;7.246;2022-09-27T17:46:21;9.00;99.90
68051;DHT22;54839;51.364;7.246;2022-09-27T17:48:48;9.00;99.90
68051;DHT22;54839;51.364;7.246;2022-09-27T17:51:37;9.00;99.90
68051;DHT22;54839;51.364;7.246;2022-09-27T17:54:04;9.00;99.90
68051;DHT22;54839;51.364;7.246;2022-09-27T17:56:32;8.90;99.90
68051;DHT22;54839;51.364;7.246;2022-09-27T17:58:58;8.90;99.90
68051;DHT22;54839;51.364;7.246;2022-09-27T18:01:25;8.80;99.90
68051;DHT22;54839;51.364;7.246;2022-09-27T18:03:52;8.80;99.90
68051;DHT22;54839;51.364;7.246;2022-09-27T18:06:19;8.80;99.90
68051;DHT22;54839;51.364;7.246;2022-09-27T18:08:44;8.80;99.90
68051;DHT22;54839;51.364;7.246;2022-09-27T18:11:15;8.80;99.90
68051;DHT22;54839;51.364;7.246;2022-09-27T18:13:41;8.90;99.90
68051;DHT22;54839;51.364;7.246;2022-09-27T18:18:34;8.90;99.90
68051;DHT22;54839;51.364;7.246;2022-09-27T18:21:03;8.80;99.90
68051;DHT22;54839;51.364;7.246;2022-09-27T18:23:30;8.90;99.90
68051;DHT22;54839;51.364;7.246;2022-09-27T18:25:56;8.80;99.90
68051;DHT22;54839;51.364;7.246;2022-09-27T18:28:28;8.80;99.90